This is the latest recevied weather packets stored in our database for station/object DC2MP. If no packets are shown the sender has not sent any weather packets the latest 10 day(s).
| Time | Temp. | Humidity | Pressure | Rain* | Wind** | Luminosity | Snow |
|---|---|---|---|---|---|---|---|
| 1778320144 | 17.78° C | 55% | 1017.3 hPa | 0 mm | - | - | - |
| 1778316543 | 16.11° C | 63% | 1017.5 hPa | 0 mm | - | - | - |
| 1778312943 | 13.89° C | 79% | 1017.7 hPa | 0 mm | - | - | - |
| 1778309344 | 11.67° C | 90% | 1017.8 hPa | 0 mm | - | - | - |
| 1778305743 | 9.44° C | 97% | 1018.1 hPa | 0 mm | - | - | - |
| 1778298543 | 8.33° C | 98% | 1017.3 hPa | 0 mm | - | - | - |
| 1778294944 | 9.44° C | 97% | 1017.4 hPa | 0 mm | - | - | - |
| 1778291343 | 9.44° C | 98% | 1017.5 hPa | 0 mm | - | - | - |
| 1778287743 | 10° C | 94% | 1017.6 hPa | 2.29 mm | - | - | - |
| 1778284143 | 9.44° C | 87% | 1017.3 hPa | 0 mm | - | - | - |
| 1778276943 | 10.56° C | 80% | 1017.1 hPa | 0 mm | - | - | - |
| 1778273343 | 11.67° C | 78% | 1016.6 hPa | 0 mm | - | - | - |
| 1778269743 | 12.22° C | 77% | 1016.3 hPa | 0 mm | - | - | - |
| 1778266143 | 14.44° C | 66% | 1015.4 hPa | 0 mm | - | - | - |
| 1778262543 | 16.67° C | 55% | 1014.6 hPa | 0 mm | - | - | - |
| 1778258943 | 17.22° C | 54% | 1014.4 hPa | 0 mm | - | - | - |
| 1778255343 | 18.33° C | 50% | 1014.3 hPa | 0 mm | - | - | - |
| 1778251743 | 18.89° C | 49% | 1014.8 hPa | 0 mm | - | - | - |
| 1778248143 | 18.33° C | 51% | 1015.2 hPa | 0 mm | - | - | - |
| 1778244543 | 17.22° C | 53% | 1015.3 hPa | 0 mm | - | - | - |
| 1778240943 | 18.33° C | 51% | 1015.3 hPa | 0 mm | - | - | - |
| 1778237343 | 17.78° C | 53% | 1015.5 hPa | 0 mm | - | - | - |
| 1778233744 | 15° C | 61% | 1015.7 hPa | 0 mm | - | - | - |
| 1778230143 | 13.89° C | 63% | 1015.8 hPa | 0 mm | - | - | - |
| 1778226543 | 12.78° C | 65% | 1015.9 hPa | 0 mm | - | - | - |
* Rain latest hour (hover to see other rain measurements)
** Current wind speed in m/s (hover to see current wind gust speed)